createdAt,value
2018-12-30T00:01:12.548Z,95419.60
2018-12-30T00:03:43.458Z,95425.90
2018-12-30T00:06:14.272Z,95411.80
2018-12-30T00:08:45.234Z,95427.13
2018-12-30T00:11:15.878Z,95419.99
2018-12-30T00:13:46.396Z,95423.51
2018-12-30T00:16:17.054Z,95424.84
2018-12-30T00:18:47.871Z,95419.73
2018-12-30T00:21:18.140Z,95417.75
2018-12-30T00:23:49.030Z,95418.81
2018-12-30T00:26:19.333Z,95423.67
2018-12-30T00:28:49.933Z,95420.97
2018-12-30T00:31:20.749Z,95426.94
2018-12-30T00:33:51.759Z,95425.57
2018-12-30T00:36:22.041Z,95421.25
2018-12-30T00:38:52.909Z,95412.56
2018-12-30T00:41:23.574Z,95414.98
2018-12-30T00:43:54.172Z,95418.41
2018-12-30T00:46:24.723Z,95415.91
2018-12-30T00:48:55.356Z,95419.77
2018-12-30T00:51:26.011Z,95413.31
2018-12-30T00:53:56.394Z,95416.47
2018-12-30T00:56:26.650Z,95421.25
2018-12-30T00:58:57.194Z,95425.48
2018-12-30T01:01:27.829Z,95426.21
2018-12-30T01:03:58.224Z,95438.20
2018-12-30T01:06:28.561Z,95427.62
2018-12-30T01:08:59.229Z,95426.17
2018-12-30T01:11:29.671Z,95418.40
2018-12-30T01:14:00.231Z,95413.92
2018-12-30T01:16:30.831Z,95412.12
2018-12-30T01:19:01.601Z,95409.61
2018-12-30T01:21:32.161Z,95417.31
2018-12-30T01:24:02.623Z,95409.02
2018-12-30T01:26:32.925Z,95409.58
2018-12-30T01:29:03.716Z,95402.09
2018-12-30T01:31:34.419Z,95406.13
2018-12-30T01:34:05.054Z,95402.16
2018-12-30T01:36:36.764Z,95390.77
2018-12-30T01:39:08.768Z,95392.50
2018-12-30T01:41:39.055Z,95393.16
2018-12-30T01:44:09.939Z,95394.50
2018-12-30T01:46:40.374Z,95392.58
2018-12-30T01:49:11.248Z,95393.82
2018-12-30T01:51:41.521Z,95390.22
2018-12-30T01:54:12.057Z,95390.09
2018-12-30T01:56:42.409Z,95387.88
2018-12-30T01:59:13.346Z,95381.40
2018-12-30T02:01:43.618Z,95377.97
2018-12-30T02:04:14.423Z,95375.91
2018-12-30T02:06:45.121Z,95374.75
2018-12-30T02:09:15.672Z,95367.17
2018-12-30T02:11:46.245Z,95370.91
2018-12-30T02:14:17.141Z,95370.72
2018-12-30T02:16:48.615Z,95354.50
2018-12-30T02:19:19.294Z,95366.85
2018-12-30T02:21:49.591Z,95362.97
2018-12-30T02:24:20.212Z,95355.86
2018-12-30T02:26:50.601Z,95348.55
2018-12-30T02:29:21.493Z,95350.16
2018-12-30T02:31:52.114Z,95349.88
2018-12-30T02:34:23.000Z,95347.73
2018-12-30T02:36:53.277Z,95341.22
2018-12-30T02:39:24.107Z,95340.41
2018-12-30T02:41:54.805Z,95339.22
2018-12-30T02:44:25.355Z,95330.06
2018-12-30T02:46:55.706Z,95343.37
2018-12-30T02:49:26.672Z,95339.03
2018-12-30T02:51:57.024Z,95335.70
2018-12-30T02:54:27.567Z,95330.81
2018-12-30T02:56:58.335Z,95326.03
2018-12-30T02:59:29.029Z,95321.89
2018-12-30T03:01:59.585Z,95325.59
2018-12-30T03:04:30.382Z,95315.30
2018-12-30T03:07:00.796Z,95318.94
2018-12-30T03:09:31.360Z,95319.74
2018-12-30T03:12:02.017Z,95311.33
2018-12-30T03:14:32.754Z,95309.66
2018-12-30T03:17:03.035Z,95318.80
2018-12-30T03:19:33.878Z,95312.08
2018-12-30T03:22:04.340Z,95329.63
2018-12-30T03:24:34.778Z,95305.99
2018-12-30T03:27:05.389Z,95305.09
2018-12-30T03:29:36.306Z,95301.77
2018-12-30T03:32:06.889Z,95297.73
2018-12-30T03:34:37.724Z,95295.84
2018-12-30T03:37:08.096Z,95295.22
2018-12-30T03:39:38.812Z,95290.70
2018-12-30T03:42:09.308Z,95286.66
2018-12-30T03:44:40.015Z,95289.47
2018-12-30T03:47:10.370Z,95281.89
2018-12-30T03:49:41.167Z,95292.94
2018-12-30T03:52:11.453Z,95284.08
2018-12-30T03:54:41.967Z,95286.95
2018-12-30T03:57:12.441Z,95275.78
2018-12-30T03:59:43.600Z,95283.65
2018-12-30T04:02:14.460Z,95281.03
2018-12-30T04:04:44.972Z,95284.13
2018-12-30T04:07:15.324Z,95285.72
2018-12-30T04:09:46.356Z,95282.97
2018-12-30T04:12:16.641Z,95283.28
2018-12-30T04:14:47.284Z,95277.81
2018-12-30T04:17:17.862Z,95277.68
2018-12-30T04:19:48.395Z,95282.73
2018-12-30T04:22:18.667Z,95294.09
2018-12-30T04:24:49.288Z,95290.19
2018-12-30T04:27:19.821Z,95278.22
2018-12-30T04:29:50.564Z,95287.45
2018-12-30T04:32:20.878Z,95291.11
2018-12-30T04:34:51.443Z,95290.52
2018-12-30T04:37:22.091Z,95283.79
2018-12-30T04:39:52.397Z,95290.19
2018-12-30T04:42:22.877Z,95299.38
2018-12-30T04:44:53.459Z,95286.11
2018-12-30T04:47:23.962Z,95284.95
2018-12-30T04:49:54.244Z,95282.16
2018-12-30T04:52:25.874Z,95279.88
2018-12-30T04:54:57.066Z,95276.78
2018-12-30T04:57:27.332Z,95280.28
2018-12-30T04:59:57.991Z,95279.05
2018-12-30T05:02:29.250Z,95282.74
2018-12-30T05:05:00.178Z,95282.92
2018-12-30T05:07:30.653Z,95303.38
2018-12-30T05:10:01.205Z,95286.78
2018-12-30T05:12:31.939Z,95286.89
2018-12-30T05:15:02.616Z,95286.23
2018-12-30T05:17:32.995Z,95286.95
2018-12-30T05:20:03.947Z,95282.87
2018-12-30T05:22:34.306Z,95279.20
2018-12-30T05:25:04.589Z,95279.15
2018-12-30T05:27:34.981Z,95287.27
2018-12-30T05:30:06.312Z,95276.64
2018-12-30T05:32:36.607Z,95281.34
2018-12-30T05:35:07.150Z,95277.91
2018-12-30T05:37:37.545Z,95280.86
2018-12-30T05:40:08.302Z,95285.05
2018-12-30T05:42:38.864Z,95287.88
2018-12-30T05:45:09.183Z,95285.47
2018-12-30T05:47:39.876Z,95275.95
2018-12-30T05:50:10.654Z,95276.22
2018-12-30T05:52:42.093Z,95277.46
2018-12-30T05:55:12.537Z,95283.82
2018-12-30T05:57:43.362Z,95278.23
2018-12-30T06:00:13.828Z,95280.84
2018-12-30T06:02:44.131Z,95281.98
2018-12-30T06:05:14.611Z,95281.98
2018-12-30T06:07:45.436Z,95284.08
2018-12-30T06:10:16.107Z,95287.61
2018-12-30T06:12:46.428Z,95288.20
2018-12-30T06:15:16.720Z,95284.08
2018-12-30T06:17:47.421Z,95286.20
2018-12-30T06:20:17.698Z,95287.43
2018-12-30T06:22:49.724Z,95286.14
2018-12-30T06:25:20.646Z,95287.58
2018-12-30T06:27:50.977Z,95290.84
2018-12-30T06:30:21.279Z,95294.29
2018-12-30T06:32:51.994Z,95303.75
2018-12-30T06:35:22.769Z,95300.05
2018-12-30T06:37:53.149Z,95302.24
2018-12-30T06:40:24.421Z,95303.63
2018-12-30T06:42:54.761Z,95309.59
2018-12-30T06:45:25.197Z,95312.38
2018-12-30T06:47:55.477Z,95309.69
2018-12-30T06:50:25.780Z,95316.98
2018-12-30T06:52:57.742Z,95312.08
2018-12-30T06:55:28.366Z,95321.44
2018-12-30T06:57:58.763Z,95320.57
2018-12-30T07:00:29.503Z,95314.43
2018-12-30T07:02:59.979Z,95309.42
2018-12-30T07:05:30.306Z,95312.13
2018-12-30T07:08:00.949Z,95311.06
2018-12-30T07:10:31.696Z,95305.80
2018-12-30T07:13:01.967Z,95306.83
2018-12-30T07:15:32.321Z,95311.56
2018-12-30T07:18:02.732Z,95313.27
2018-12-30T07:20:33.030Z,95308.03
2018-12-30T07:23:05.949Z,95308.73
2018-12-30T07:25:35.766Z,95315.16
2018-12-30T07:28:06.046Z,95307.53
2018-12-30T07:30:36.353Z,95308.66
2018-12-30T07:33:06.955Z,95308.66
2018-12-30T07:35:37.793Z,95308.84
2018-12-30T07:38:08.085Z,95318.20
2018-12-30T07:40:38.771Z,95315.62
2018-12-30T07:43:09.065Z,95317.05
2018-12-30T07:45:39.897Z,95321.23
2018-12-30T07:48:10.171Z,95317.86
2018-12-30T07:50:40.849Z,95314.68
2018-12-30T07:53:13.924Z,95317.98
2018-12-30T07:55:44.258Z,95317.17
2018-12-30T07:58:14.546Z,95321.45
2018-12-30T08:00:45.285Z,95318.30
2018-12-30T08:03:15.912Z,95324.13
2018-12-30T08:05:46.259Z,95324.66
2018-12-30T08:08:17.005Z,95319.27
2018-12-30T08:10:47.990Z,95320.06
2018-12-30T08:13:18.271Z,95319.50
2018-12-30T08:15:49.111Z,95324.55
2018-12-30T08:18:19.420Z,95318.61
2018-12-30T08:20:50.073Z,95326.09
2018-12-30T08:23:21.813Z,95318.30
2018-12-30T08:25:52.984Z,95326.78
2018-12-30T08:28:25.211Z,95320.19
2018-12-30T08:30:56.594Z,95321.44
2018-12-30T08:33:26.941Z,95323.70
2018-12-30T08:35:57.701Z,95331.70
2018-12-30T08:38:28.312Z,95325.25
2018-12-30T08:40:58.991Z,95334.95
2018-12-30T08:43:29.277Z,95334.05
2018-12-30T08:45:59.945Z,95328.63
2018-12-30T08:48:30.933Z,95333.72
2018-12-30T08:51:01.331Z,95334.30
2018-12-30T08:53:31.632Z,95334.16
2018-12-30T08:56:02.727Z,95337.61
2018-12-30T08:58:33.488Z,95333.91
2018-12-30T09:01:04.084Z,95331.63
2018-12-30T09:03:34.374Z,95330.27
2018-12-30T09:06:05.108Z,95327.55
2018-12-30T09:08:35.488Z,95326.28
2018-12-30T09:11:06.827Z,95318.16
2018-12-30T09:13:37.485Z,95326.09
2018-12-30T09:16:07.875Z,95326.05
2018-12-30T09:18:38.245Z,95322.94
2018-12-30T09:21:08.829Z,95325.66
2018-12-30T09:23:39.151Z,95320.74
2018-12-30T09:26:10.089Z,95318.16
2018-12-30T09:28:40.647Z,95317.19
2018-12-30T09:31:11.151Z,95315.44
2018-12-30T09:33:41.825Z,95320.43
2018-12-30T09:36:12.450Z,95313.30
2018-12-30T09:38:43.798Z,95314.18
2018-12-30T09:41:14.955Z,95311.14
2018-12-30T09:43:45.302Z,95312.27
2018-12-30T09:46:15.871Z,95307.82
2018-12-30T09:48:46.247Z,95320.83
2018-12-30T09:51:16.833Z,95306.22
2018-12-30T09:53:47.567Z,95302.66
2018-12-30T09:56:18.113Z,95307.38
2018-12-30T09:58:48.388Z,95293.96
2018-12-30T10:01:19.018Z,95298.61
2018-12-30T10:03:49.710Z,95289.61
2018-12-30T10:06:20.033Z,95290.53
2018-12-30T10:08:50.777Z,95295.71
2018-12-30T10:11:21.640Z,95285.94
2018-12-30T10:13:52.232Z,95286.49
2018-12-30T10:16:23.225Z,95277.38
2018-12-30T10:18:54.254Z,95282.73
2018-12-30T10:21:24.827Z,95284.08
2018-12-30T10:23:55.476Z,95278.88
2018-12-30T10:26:26.080Z,95276.44
2018-12-30T10:28:56.763Z,95269.88
2018-12-30T10:31:27.976Z,95272.71
2018-12-30T10:33:58.252Z,95263.73
2018-12-30T10:36:28.994Z,95267.36
2018-12-30T10:38:59.585Z,95260.00
2018-12-30T10:41:30.290Z,95258.36
2018-12-30T10:44:00.560Z,95251.87
2018-12-30T10:46:31.025Z,95251.56
2018-12-30T10:49:01.304Z,95246.16
2018-12-30T10:51:31.678Z,95243.41
2018-12-30T10:54:02.343Z,95242.53
2018-12-30T10:56:32.797Z,95238.25
2018-12-30T10:59:03.608Z,95240.73
2018-12-30T11:01:33.890Z,95241.41
2018-12-30T11:04:04.454Z,95233.55
2018-12-30T11:06:35.108Z,95236.09
2018-12-30T11:09:08.168Z,95237.14
2018-12-30T11:11:38.476Z,95237.11
2018-12-30T11:14:09.114Z,95223.64
2018-12-30T11:16:39.451Z,95217.91
2018-12-30T11:19:09.797Z,95225.89
2018-12-30T11:21:41.465Z,95228.33
2018-12-30T11:24:12.087Z,95224.52
2018-12-30T11:26:42.679Z,95223.45
2018-12-30T11:29:13.452Z,95220.56
2018-12-30T11:31:44.127Z,95220.36
2018-12-30T11:34:14.769Z,95229.13
2018-12-30T11:36:45.250Z,95218.34
2018-12-30T11:39:16.064Z,95221.16
2018-12-30T11:41:46.320Z,95225.75
2018-12-30T11:44:16.628Z,95219.30
2018-12-30T11:46:47.068Z,95225.03
2018-12-30T11:49:17.448Z,95216.56
2018-12-30T11:51:47.789Z,95215.33
2018-12-30T11:54:18.657Z,95213.05
2018-12-30T11:56:49.145Z,95208.91
2018-12-30T11:59:19.720Z,95215.24
2018-12-30T12:01:50.043Z,95210.42
2018-12-30T12:04:20.344Z,95213.73
2018-12-30T12:06:51.009Z,95210.27
2018-12-30T12:09:21.285Z,95212.00
2018-12-30T12:11:51.567Z,95221.11
2018-12-30T12:14:22.038Z,95213.77
2018-12-30T12:16:52.426Z,95217.67
2018-12-30T12:19:22.918Z,95217.59
2018-12-30T12:21:53.570Z,95219.20
2018-12-30T12:24:24.719Z,95209.12
2018-12-30T12:26:55.106Z,95204.26
2018-12-30T12:29:26.963Z,95216.89
2018-12-30T12:31:57.237Z,95202.08
2018-12-30T12:34:28.233Z,95206.49
2018-12-30T12:36:58.800Z,95204.17
2018-12-30T12:39:29.297Z,95209.53
2018-12-30T12:42:00.064Z,95212.40
2018-12-30T12:44:30.429Z,95219.25
2018-12-30T12:47:00.989Z,95206.52
2018-12-30T12:49:31.760Z,95208.02
2018-12-30T12:52:02.395Z,95215.67
2018-12-30T12:54:32.697Z,95208.44
2018-12-30T12:57:03.055Z,95211.78
2018-12-30T12:59:33.684Z,95210.87
2018-12-30T13:02:04.067Z,95211.57
2018-12-30T13:04:34.819Z,95207.75
2018-12-30T13:07:05.211Z,95209.05
2018-12-30T13:09:35.848Z,95212.54
2018-12-30T13:12:06.232Z,95212.00
2018-12-30T13:14:36.498Z,95215.59
2018-12-30T13:17:07.253Z,95212.42
2018-12-30T13:19:37.910Z,95217.35
2018-12-30T13:22:08.181Z,95206.95
2018-12-30T13:24:40.013Z,95214.30
2018-12-30T13:27:11.037Z,95211.36
2018-12-30T13:29:41.423Z,95221.83
2018-12-30T13:32:12.060Z,95211.59
2018-12-30T13:34:42.713Z,95211.16
2018-12-30T13:37:13.250Z,95211.47
2018-12-30T13:39:44.070Z,95211.00
2018-12-30T13:42:14.323Z,95213.34
2018-12-30T13:44:44.654Z,95206.20
2018-12-30T13:47:15.363Z,95205.27
2018-12-30T13:49:45.694Z,95208.25
2018-12-30T13:52:16.166Z,95211.54
2018-12-30T13:54:47.813Z,95210.73
2018-12-30T13:57:18.891Z,95209.67
2018-12-30T13:59:49.160Z,95208.89
2018-12-30T14:02:20.163Z,95208.33
2018-12-30T14:04:50.808Z,95210.73
2018-12-30T14:07:21.497Z,95208.00
2018-12-30T14:09:51.796Z,95210.72
2018-12-30T14:12:22.269Z,95208.96
2018-12-30T14:14:52.674Z,95209.33
2018-12-30T14:17:23.232Z,95209.38
2018-12-30T14:19:53.975Z,95209.89
2018-12-30T14:22:24.734Z,95209.88
2018-12-30T14:24:55.735Z,95214.75
2018-12-30T14:27:26.491Z,95205.08
2018-12-30T14:29:57.162Z,95206.95
2018-12-30T14:32:27.759Z,95209.61
2018-12-30T14:34:58.472Z,95217.55
2018-12-30T14:37:28.948Z,95210.70
2018-12-30T14:39:59.281Z,95204.73
2018-12-30T14:42:29.635Z,95210.49
2018-12-30T14:45:00.299Z,95213.69
2018-12-30T14:47:30.583Z,95211.34
2018-12-30T14:50:01.579Z,95212.14
2018-12-30T14:52:32.265Z,95215.72
2018-12-30T14:55:03.856Z,95217.07
2018-12-30T14:57:34.621Z,95216.18
2018-12-30T15:00:05.684Z,95220.48
2018-12-30T15:02:36.000Z,95217.13
2018-12-30T15:05:06.379Z,95216.89
2018-12-30T15:07:37.129Z,95214.78
2018-12-30T15:10:07.412Z,95218.02
2018-12-30T15:12:37.801Z,95217.42
2018-12-30T15:15:08.085Z,95214.20
2018-12-30T15:17:38.508Z,95220.66
2018-12-30T15:20:09.079Z,95221.76
2018-12-30T15:22:39.543Z,95223.67
2018-12-30T15:25:11.927Z,95218.72
2018-12-30T15:27:42.304Z,95221.99
2018-12-30T15:30:13.565Z,95225.66
2018-12-30T15:32:44.115Z,95221.41
2018-12-30T15:35:14.789Z,95229.25
2018-12-30T15:37:45.303Z,95229.36
2018-12-30T15:40:15.657Z,95225.59
2018-12-30T15:42:46.094Z,95227.44
2018-12-30T15:45:16.779Z,95229.16
2018-12-30T15:47:47.080Z,95229.65
2018-12-30T15:50:19.479Z,95225.38
2018-12-30T15:52:51.325Z,95229.73
2018-12-30T15:55:21.674Z,95224.55
2018-12-30T15:57:52.062Z,95227.52
2018-12-30T16:00:22.723Z,95229.13
2018-12-30T16:02:53.047Z,95226.16
2018-12-30T16:05:23.340Z,95231.21
2018-12-30T16:07:53.995Z,95225.04
2018-12-30T16:10:24.315Z,95231.25
2018-12-30T16:12:54.629Z,95230.83
2018-12-30T16:15:25.231Z,95227.94
2018-12-30T16:17:55.609Z,95231.17
2018-12-30T16:20:26.305Z,95232.50
2018-12-30T16:22:56.642Z,95234.39
2018-12-30T16:25:27.485Z,95242.05
2018-12-30T16:27:58.342Z,95230.44
2018-12-30T16:30:28.602Z,95231.49
2018-12-30T16:32:58.945Z,95231.00
2018-12-30T16:35:29.601Z,95234.95
2018-12-30T16:37:59.955Z,95239.45
2018-12-30T16:40:30.231Z,95238.02
2018-12-30T16:43:00.649Z,95240.42
2018-12-30T16:45:31.300Z,95242.37
2018-12-30T16:48:01.762Z,94955.78
2018-12-30T16:50:32.138Z,95240.50
2018-12-30T16:53:02.475Z,95242.38
2018-12-30T16:55:35.029Z,95241.91
2018-12-30T16:58:05.376Z,95242.51
2018-12-30T17:00:35.876Z,95246.13
2018-12-30T17:03:06.581Z,95247.34
2018-12-30T17:05:37.118Z,95248.20
2018-12-30T17:08:07.401Z,95245.34
2018-12-30T17:10:37.823Z,95249.95
2018-12-30T17:13:08.483Z,95247.79
2018-12-30T17:15:38.841Z,95255.28
2018-12-30T17:18:09.310Z,95249.28
2018-12-30T17:20:39.628Z,95248.17
2018-12-30T17:23:10.433Z,95252.11
2018-12-30T17:25:43.230Z,95254.38
2018-12-30T17:28:13.052Z,95263.52
2018-12-30T17:30:43.637Z,95264.46
2018-12-30T17:33:14.038Z,95260.28
2018-12-30T17:35:46.192Z,95266.55
2018-12-30T17:38:17.356Z,95268.58
2018-12-30T17:40:47.772Z,95264.46
2018-12-30T17:43:18.157Z,95259.40
2018-12-30T17:45:48.527Z,95267.83
2018-12-30T17:48:19.199Z,95268.26
2018-12-30T17:50:49.520Z,95264.07
2018-12-30T17:53:19.850Z,95266.10
2018-12-30T17:55:51.009Z,95264.15
2018-12-30T17:58:21.675Z,95266.84
2018-12-30T18:00:51.954Z,95267.86
2018-12-30T18:03:22.488Z,95269.94
2018-12-30T18:05:52.900Z,95267.64
2018-12-30T18:08:23.158Z,95275.20
2018-12-30T18:10:53.534Z,95270.41
2018-12-30T18:13:24.349Z,95264.78
2018-12-30T18:15:54.573Z,95277.13
2018-12-30T18:18:24.901Z,95268.92
2018-12-30T18:20:55.465Z,95270.09
2018-12-30T18:23:25.747Z,95273.45
2018-12-30T18:25:58.768Z,95276.63
2018-12-30T18:28:28.428Z,95273.16
2018-12-30T18:30:59.102Z,95270.83
2018-12-30T18:33:29.775Z,95280.34
2018-12-30T18:36:00.239Z,95276.25
2018-12-30T18:38:30.778Z,95270.65
2018-12-30T18:41:01.435Z,95270.66
2018-12-30T18:43:31.751Z,95265.33
2018-12-30T18:46:02.092Z,95266.22
2018-12-30T18:48:32.964Z,95272.06
2018-12-30T18:51:03.396Z,95266.05
2018-12-30T18:53:34.147Z,95270.81
2018-12-30T18:56:06.947Z,95272.09
2018-12-30T18:58:37.140Z,95262.27
2018-12-30T19:01:07.833Z,95266.30
2018-12-30T19:03:38.115Z,95265.98
2018-12-30T19:06:08.773Z,95265.03
2018-12-30T19:08:39.397Z,95266.95
2018-12-30T19:11:09.674Z,95266.30
2018-12-30T19:13:40.316Z,95263.99
2018-12-30T19:16:10.893Z,95259.55
2018-12-30T19:18:41.524Z,95262.13
2018-12-30T19:21:12.118Z,95266.42
2018-12-30T19:23:42.606Z,95260.37
2018-12-30T19:26:14.399Z,95263.25
2018-12-30T19:28:45.047Z,95261.86
2018-12-30T19:31:15.462Z,95268.06
2018-12-30T19:33:45.761Z,95263.30
2018-12-30T19:36:16.746Z,95252.34
2018-12-30T19:38:47.289Z,95252.28
2018-12-30T19:41:17.676Z,95251.05
2018-12-30T19:43:48.829Z,95255.47
2018-12-30T19:46:19.577Z,95247.53
2018-12-30T19:48:50.203Z,95246.75
2018-12-30T19:51:21.066Z,95243.45
2018-12-30T19:53:51.734Z,95254.39
2018-12-30T19:56:22.314Z,95243.98
2018-12-30T19:58:53.011Z,95240.00
2018-12-30T20:01:23.789Z,95239.71
2018-12-30T20:03:55.325Z,95239.94
2018-12-30T20:06:26.069Z,95239.91
2018-12-30T20:08:56.557Z,95238.59
2018-12-30T20:11:26.812Z,95237.45
2018-12-30T20:13:57.458Z,95241.41
2018-12-30T20:16:28.160Z,95237.70
2018-12-30T20:18:58.589Z,95236.83
2018-12-30T20:21:29.133Z,95238.09
2018-12-30T20:23:59.697Z,95239.38
2018-12-30T20:26:30.397Z,95238.80
2018-12-30T20:29:00.924Z,95235.11
2018-12-30T20:31:32.622Z,95243.70
2018-12-30T20:34:02.898Z,95232.72
2018-12-30T20:36:33.350Z,95238.77
2018-12-30T20:39:04.497Z,95230.68
2018-12-30T20:41:35.115Z,95234.59
2018-12-30T20:44:05.834Z,95236.68
2018-12-30T20:46:36.790Z,95232.13
2018-12-30T20:49:07.072Z,95236.74
2018-12-30T20:51:37.601Z,95227.14
2018-12-30T20:54:08.503Z,95233.19
2018-12-30T20:56:38.874Z,95234.16
2018-12-30T20:59:09.282Z,95235.45
2018-12-30T21:01:39.909Z,95229.23
2018-12-30T21:04:10.181Z,95232.34
2018-12-30T21:06:40.851Z,95241.41
2018-12-30T21:09:11.235Z,95233.36
2018-12-30T21:11:41.852Z,95231.05
2018-12-30T21:14:12.562Z,95234.43
2018-12-30T21:16:43.159Z,95228.27
2018-12-30T21:19:13.729Z,95229.92
2018-12-30T21:21:44.638Z,95232.28
2018-12-30T21:24:14.918Z,95227.73
2018-12-30T21:26:45.729Z,95242.92
2018-12-30T21:29:16.243Z,95238.03
2018-12-30T21:31:46.574Z,95237.70
2018-12-30T21:34:16.884Z,95232.14
2018-12-30T21:36:47.664Z,95234.53
2018-12-30T21:39:18.044Z,95239.91
2018-12-30T21:41:48.715Z,95232.82
2018-12-30T21:44:19.008Z,95234.80
2018-12-30T21:46:49.364Z,95232.75
2018-12-30T21:49:20.070Z,95230.13
2018-12-30T21:51:50.661Z,95226.33
2018-12-30T21:54:21.087Z,95227.88
2018-12-30T21:56:54.918Z,95228.53
2018-12-30T21:59:24.185Z,95226.87
2018-12-30T22:01:54.732Z,95237.37
2018-12-30T22:04:25.296Z,95226.62
2018-12-30T22:06:55.975Z,95231.52
2018-12-30T22:09:26.356Z,95225.23
2018-12-30T22:11:56.693Z,95229.37
2018-12-30T22:14:26.986Z,95231.64
2018-12-30T22:16:57.922Z,95227.81
2018-12-30T22:19:28.348Z,95225.45
2018-12-30T22:21:58.937Z,95232.66
2018-12-30T22:24:29.536Z,95229.86
2018-12-30T22:27:00.752Z,95227.42
2018-12-30T22:29:31.098Z,95220.52
2018-12-30T22:32:02.009Z,95219.75
2018-12-30T22:34:32.403Z,95217.47
2018-12-30T22:37:02.668Z,95222.70
2018-12-30T22:39:33.296Z,95224.52
2018-12-30T22:42:04.767Z,95220.20
2018-12-30T22:44:35.321Z,95228.29
2018-12-30T22:47:06.233Z,95220.51
2018-12-30T22:49:36.854Z,95220.64
2018-12-30T22:52:07.620Z,95218.02
2018-12-30T22:54:38.510Z,95217.09
2018-12-30T22:57:08.830Z,95219.97
2018-12-30T22:59:39.341Z,95217.30
2018-12-30T23:02:10.557Z,95210.88
2018-12-30T23:04:40.894Z,95205.33
2018-12-30T23:07:11.329Z,95210.15
2018-12-30T23:09:41.951Z,95206.53
2018-12-30T23:12:12.553Z,95216.14
2018-12-30T23:14:43.407Z,95208.48
2018-12-30T23:17:13.919Z,95206.14
2018-12-30T23:19:44.391Z,95208.55
2018-12-30T23:22:15.027Z,95206.66
2018-12-30T23:24:45.331Z,95204.61
2018-12-30T23:27:15.683Z,95207.17
2018-12-30T23:29:46.087Z,95203.80
2018-12-30T23:32:16.501Z,95197.01
2018-12-30T23:34:46.794Z,95195.38
2018-12-30T23:37:17.749Z,95192.65
2018-12-30T23:39:48.280Z,95197.50
2018-12-30T23:42:18.695Z,95202.77
2018-12-30T23:44:49.272Z,95206.75
2018-12-30T23:47:19.852Z,95206.23
2018-12-30T23:49:50.422Z,95205.32
2018-12-30T23:52:20.725Z,95205.23
2018-12-30T23:54:51.280Z,95205.34
2018-12-30T23:57:22.167Z,95202.34
2018-12-30T23:59:52.898Z,95202.28
